Terminal Aerodrome Forecast
Issued by NWS Bismarck, ND

Home | Current Version | Previous Version | Graphics & Text | Print | Product List | Glossary On
Versions: 1 2 3 4 5 6 7 8 9 10 11 12 13 14 15 16 17 18 19
963
FTUS43 KBIS 260540
TAFISN
TAF
KISN 260540Z 2606/2706 00000KT P6SM VCSH OVC040
     FM260900 05007KT P6SM -RASN OVC020
     FM261500 07008KT P6SM OVC025
     FM261900 08009KT P6SM OVC045
     FM270200 07007KT P6SM VCSH OVC015=

USA.gov is the U.S. government's official web portal to all federal, state and local government web resources and services.